Terminal Aerodrome Forecast
Issued by NWS Houston/Galveston, TX

Home | Current Version | Previous Version | Text Only | Print | Product List | Glossary On
Versions: 1 2 3 4 5 6 7 8 9 10 11 12 13 14 15 16 17 18 19 20 21 22 23 24 25 26 27 28 29 30 31 32 33 34 35 36 37 38 39 40
364
FTUS44 KHGX 251121
TAFCLL
TAF
KCLL 251121Z 2512/2612 09004KT P6SM SCT015
      TEMPO 2512/2513 6SM BR BKN015
     FM251500 12007KT P6SM FEW015
     FM251800 13008KT P6SM SCT035
     FM252200 11008KT P6SM VCSH SCT050
     FM260100 13004KT P6SM SCT250=

USA.gov is the U.S. government's official web portal to all federal, state and local government web resources and services.